AirNav   Pilot Hours Calculator
 
 884 users online  

9PA9 Lankenau Hospital Heliport
Philadelphia, Pennsylvania, USA

GOING TO PHILADELPHIA?


FAA INFORMATION EFFECTIVE 30 JANUARY 2020

Location

FAA Identifier: 9PA9
Lat/Long: 39-59-17.2600N 075-15-34.6000W
39-59.287667N 075-15.576667W
39.9881278,-75.2596111
(estimated)
Elevation: 221 ft. / 67 m (estimated)
Variation: 11W (1985)
From city: 1 mile NW of PHILADELPHIA, PA
Time zone: UTC -5 (UTC -4 during Daylight Saving Time)
Zip code: 19096

Heliport Operations

Heliport use: Private use, MEDICAL USE.
Activation date: 09/1975
Control tower: no
ARTCC: NEW YORK CENTER
FSS: WILLIAMSPORT FLIGHT SERVICE STATION
Attendance: UNATNDD
Wind indicator: yes
Segmented circle: no

Heliport Communications

WX ASOS at PHL (7 nm S): PHONE 215-492-9617
WX AWOS-3 at LOM (9 nm N): 118.925 (215-646-1068)
WX ASOS at PNE (13 nm NE): 121.15 (215-677-0146)
WX AWOS-3T at OQN (15 nm W): 121.4 ((610) 692-6190)
WX ASOS at VAY (19 nm E): 119.325 (609-267-1176)

Nearby radio navigation aids

VOR radial/distance  VOR name  Freq  Var
MXEr086/19.4MODENA VORTAC113.2009W
PTWr145/19.7POTTSTOWN VORTAC116.5009W
OODr015/21.2WOODSTOWN VORTAC112.8010W
ARDr235/22.7YARDLEY VOR/DME108.2010W
DQOr051/24.5DUPONT VORTAC114.0010W
VCNr343/30.2CEDAR LAKE VOR/DME115.2010W
GXUr280/30.5MC GUIRE VORTAC110.6012W
RBVr260/37.4ROBBINSVILLE VORTAC113.8010W
CYNr295/39.5COYLE VORTAC113.4010W

 
NDB name  Hdg/Dist  Freq  Var  ID
AMBLER184/8.427512WING .. -. --.
RAINBOW001/34.736311WRNB .-. -. -...

Heliport Services

Runway Information

Helipad H1

Dimensions: 65 x 65 ft. / 20 x 20 m
Surface: asphalt/concrete
Runway edge lights: PERI
Latitude: 39-59.287667N
Longitude: 075-15.576667W
Elevation: 221.0 ft.
Traffic pattern: leftleft
Obstructions: bldg, 250 ft. from runway

Heliport Ownership and Management from official FAA records

Ownership: Privately-owned
Owner: LANKENAU HOSPITAL
100 LANCASTER AVENUE
WYNNEWOOD, PA 19096
Phone (484) 476-6964
Manager: ARMAND ALESSI
100 LANCASTER AVENUE
WYNNEWOOD, PA 19096
Phone (484) 476-6964

Additional Remarks

FOR CD CTC PHILADELPHIA APCH AT 800-354-9884.

Instrument Procedures

There are no published instrument procedures at 9PA9.

Some nearby airports with instrument procedures:

KPHL - Philadelphia International Airport (7 nm S)
KLOM - Wings Field Airport (9 nm N)
KPNE - Northeast Philadelphia Airport (13 nm NE)
KOQN - Brandywine Regional Airport (15 nm W)
N10 - Perkiomen Valley Airport (15 nm NW)
7N7 - Spitfire Aerodrome (16 nm SW)
19N - Camden County Airport (19 nm SE)
KVAY - South Jersey Regional Airport (19 nm E)
17N - Cross Keys Airport (20 nm SE)
 
Loc | Ops | Rwys | IFR | FBO | Links
Com | Nav | Svcs | Stats | Notes
Area around 9PA9 (Lankenau Hospital Heliport)
 
Road maps at: MapQuest Bing Google
 
Aerial photo
No photo
 
Sectional chart

 
Airport distance calculator
Flying to Lankenau Hospital Heliport? Find the distance to fly.

From to 9PA9

Sunrise and sunset
Times for 16-Feb-2020
 Local
(UTC-5)
 Zulu
(UTC)
Morning civil twilight06:2611:26
Sunrise06:5411:54
Sunset17:3722:37
Evening civil twilight18:0423:04

Current date and time
Zulu (UTC)  17-Feb-2020 01:16:49
Local (UTC-5)  16-Feb-2020 20:16:49
 
METAR
KPHL 
7nm S 
170054Z 22004KT 10SM OVC100 08/M02 A3011 RMK AO2 SLP195 T00781022 $
KLOM 
9nm N 
170055Z AUTO 00000KT 10SM BKN080 OVC120 02/M02 A3010 RMK AO2 T00241018
KPNE 
13nm NE 
170054Z 00000KT 10SM OVC100 05/M03 A3011 RMK AO2 SLP198 T00501028
KOQN 
15nm W 
170055Z AUTO 00000KT 10SM SCT080 05/M03 A3009 RMK AO2
KPTW 
20nm NW 
170054Z AUTO 00000KT 9SM OVC080 03/M04 A3011 RMK AO2 SLP196 T00281039
KVAY 
20nm E 
ASOS 119.325 609-267-1176
170054Z AUTO 00000KT 10SM OVC100 02/M03 A3010 RMK AO2 SLP194 T00221028
TAF
KPHL 
7nm S 
162042Z 1621/1724 24006KT P6SM BKN100 FM170000 24004KT P6SM BKN060 FM170500 32003KT P6SM SCT060 FM171500 02004KT P6SM FEW150
KPNE 
13nm NE 
161720Z 1618/1718 25006KT P6SM BKN100 FM170000 24004KT P6SM BKN050 FM170500 32005KT P6SM SCT050
NOTAMs
Click for the latest NOTAMs
NOTAMs are issued by the DoD/FAA and will open in a separate window not controlled by AirNav.

 

 
 

Would you like to see your business listed on this page?

 If your business provides an interesting product or service to pilots, flight crews, aircraft, or users of the Lankenau Hospital Heliport, you should consider listing it here.  To start the listing process, click on the button below
 
Add a business
 

Other Pages about Lankenau Hospital Heliport

Update a link
 
Copyright © AirNav, LLC. All rights reserved. Privacy Policy  Contact